createdAt,value
2023-04-23T00:03:11.633Z,17.7
2023-04-23T00:09:05.298Z,17.7
2023-04-23T00:14:57.426Z,17.9
2023-04-23T00:20:48.613Z,17.9
2023-04-23T00:26:39.280Z,17.9
2023-04-23T00:32:31.559Z,17.8
2023-04-23T00:38:06.906Z,17.8
2023-04-23T00:43:58.265Z,17.7
2023-04-23T00:49:50.224Z,17.6
2023-04-23T00:55:42.127Z,17.7
2023-04-23T01:01:32.554Z,17.8
2023-04-23T01:07:25.564Z,17.8
2023-04-23T01:13:16.485Z,17.8
2023-04-23T01:18:52.927Z,17.7
2023-04-23T01:24:44.176Z,17.6
2023-04-23T01:30:35.478Z,17.6
2023-04-23T01:36:27.321Z,17.5
2023-04-23T01:42:18.703Z,17.7
2023-04-23T01:48:13.086Z,17.8
2023-04-23T01:54:04.497Z,17.8
2023-04-23T01:59:39.542Z,17.7
2023-04-23T02:05:32.870Z,17.6
2023-04-23T02:11:24.321Z,17.6
2023-04-23T02:17:16.271Z,17.5
2023-04-23T02:23:08.620Z,17.6
2023-04-23T02:29:00.143Z,17.7
2023-04-23T02:34:52.473Z,17.7
2023-04-23T02:40:43.437Z,17.7
2023-04-23T02:46:34.798Z,17.6
2023-04-23T02:52:26.281Z,17.6
2023-04-23T02:58:18.041Z,17.4
2023-04-23T03:04:11.572Z,17.4
2023-04-23T03:09:47.286Z,17.4
2023-04-23T03:15:39.012Z,17.5
2023-04-23T03:21:30.652Z,17.7
2023-04-23T03:27:21.784Z,17.7
2023-04-23T03:33:15.220Z,17.6
2023-04-23T03:39:07.045Z,17.5
2023-04-23T03:44:43.189Z,17.4
2023-04-23T03:50:19.163Z,17.4
2023-04-23T03:55:55.195Z,17.4
2023-04-23T04:01:46.347Z,17.3
2023-04-23T04:07:41.403Z,17.6
2023-04-23T04:13:32.805Z,17.6
2023-04-23T04:19:26.427Z,17.6
2023-04-23T04:25:17.345Z,17.5
2023-04-23T04:31:08.803Z,17.5
2023-04-23T04:37:00.482Z,17.4
2023-04-23T04:42:52.024Z,17.4
2023-04-23T04:48:43.966Z,17.3
2023-04-23T04:54:35.502Z,17.3
2023-04-23T05:00:11.255Z,17.4
2023-04-23T05:06:04.721Z,17.6
2023-04-23T05:11:57.716Z,17.6
2023-04-23T05:17:49.330Z,17.5
2023-04-23T05:23:41.180Z,17.4
2023-04-23T05:29:33.083Z,17.4
2023-04-23T05:35:30.973Z,17.4
2023-04-23T05:41:23.937Z,17.4
2023-04-23T05:47:16.067Z,17.6
2023-04-23T05:53:09.695Z,17.6
2023-04-23T05:59:01.304Z,17.5
2023-04-23T06:04:41.246Z,17.5
2023-04-23T06:10:35.709Z,17.4
2023-04-23T06:16:28.810Z,17.3
2023-04-23T06:22:20.567Z,17.4
2023-04-23T06:28:12.346Z,17.6
2023-04-23T06:34:04.187Z,17.6
2023-04-23T06:40:06.023Z,17.6
2023-04-23T06:45:57.808Z,17.4
2023-04-23T06:51:50.009Z,17.4
2023-04-23T06:57:41.987Z,17.4
2023-04-23T07:03:35.732Z,17.4
2023-04-23T07:09:27.942Z,17.6
2023-04-23T07:15:19.248Z,17.6
2023-04-23T07:21:10.653Z,17.6
2023-04-23T07:27:01.723Z,17.5
2023-04-23T07:32:53.093Z,17.4
2023-04-23T07:38:44.880Z,17.4
2023-04-23T07:44:39.116Z,17.6
2023-04-23T07:50:31.655Z,17.7
2023-04-23T07:56:07.819Z,17.7
2023-04-23T08:02:01.839Z,17.6
2023-04-23T08:07:56.330Z,17.6
2023-04-23T08:13:47.652Z,17.4
2023-04-23T08:19:55.202Z,17.4
2023-04-23T08:25:47.148Z,17.6
2023-04-23T08:31:39.288Z,17.6
2023-04-23T08:37:23.473Z,17.6
2023-04-23T08:43:04.162Z,17.6
2023-04-23T08:48:40.715Z,17.6
2023-04-23T08:54:32.120Z,17.5
2023-04-23T09:00:08.672Z,17.5
2023-04-23T09:05:47.250Z,17.6
2023-04-23T09:11:41.222Z,17.8
2023-04-23T09:17:31.970Z,17.8
2023-04-23T09:23:07.530Z,17.7
2023-04-23T09:28:59.300Z,17.6
2023-04-23T09:34:36.148Z,17.6
2023-04-23T09:40:11.937Z,17.5
2023-04-23T09:46:04.341Z,17.4
2023-04-23T09:51:41.169Z,17.4
2023-04-23T09:57:33.480Z,17.3
2023-04-23T10:03:33.969Z,17.3
2023-04-23T10:10:54.932Z,17.2
2023-04-23T10:17:39.382Z,17.1
2023-04-23T10:23:42.189Z,17.1
2023-04-23T10:29:49.692Z,17.1
2023-04-23T10:36:11.533Z,17.1
2023-04-23T10:54:43.264Z,16.9
2023-04-23T11:00:34.553Z,16.9
2023-04-23T11:06:30.431Z,16.9
2023-04-23T11:12:29.699Z,16.8
2023-04-23T11:18:08.167Z,16.8
2023-04-23T11:24:01.799Z,16.8
2023-04-23T11:29:53.133Z,16.8
2023-04-23T11:35:54.806Z,16.8
2023-04-23T11:41:31.298Z,16.8
2023-04-23T11:46:52.278Z,16.8
2023-04-23T11:52:29.622Z,16.8
2023-04-23T11:58:21.581Z,16.7
2023-04-23T12:04:15.622Z,16.8
2023-04-23T12:10:16.998Z,16.7
2023-04-23T12:15:52.460Z,16.8
2023-04-23T12:21:46.399Z,16.8
2023-04-23T12:27:38.405Z,16.8
2023-04-23T12:33:30.446Z,16.8
2023-04-23T12:39:22.272Z,16.8
2023-04-23T12:45:13.229Z,16.8
2023-04-23T12:51:05.556Z,16.8
2023-04-23T12:56:57.365Z,16.7
2023-04-23T13:02:50.059Z,16.8
2023-04-23T13:08:43.620Z,16.8
2023-04-23T13:14:20.356Z,16.8
2023-04-23T13:20:12.985Z,16.8
2023-04-23T13:26:06.790Z,16.8
2023-04-23T13:31:43.470Z,16.8
2023-04-23T13:37:19.186Z,16.8
2023-04-23T13:43:25.256Z,16.8
2023-04-23T13:49:17.399Z,16.8
2023-04-23T13:55:25.665Z,16.8
2023-04-23T14:01:14.558Z,16.8
2023-04-23T14:06:52.461Z,16.8
2023-04-23T14:12:29.712Z,16.8
2023-04-23T14:18:05.981Z,16.8
2023-04-23T14:24:01.277Z,16.8
2023-04-23T14:30:07.581Z,16.8
2023-04-23T14:36:14.511Z,16.8
2023-04-23T14:42:05.970Z,16.8
2023-04-23T14:48:09.698Z,16.8
2023-04-23T14:53:45.895Z,16.8
2023-04-23T14:59:37.152Z,16.7
2023-04-23T15:05:32.547Z,16.7
2023-04-23T15:11:24.258Z,16.7
2023-04-23T15:17:27.187Z,16.7
2023-04-23T15:23:19.033Z,16.7
2023-04-23T15:29:11.072Z,16.7
2023-04-23T15:34:48.035Z,16.7
2023-04-23T15:40:40.526Z,16.7
2023-04-23T15:46:31.909Z,16.7
2023-04-23T15:52:23.671Z,16.7
2023-04-23T15:58:16.290Z,16.7
2023-04-23T16:04:26.609Z,16.7
2023-04-23T16:10:20.368Z,16.7
2023-04-23T16:16:12.227Z,16.7
2023-04-23T16:22:05.386Z,16.7
2023-04-23T16:27:57.429Z,16.7
2023-04-23T16:34:09.685Z,16.7
2023-04-23T16:40:00.932Z,16.7
2023-04-23T16:45:52.893Z,16.7
2023-04-23T16:51:46.568Z,16.7
2023-04-23T16:57:40.111Z,16.7
2023-04-23T17:03:33.541Z,16.7
2023-04-23T17:09:27.614Z,16.7
2023-04-23T17:15:05.403Z,16.8
2023-04-23T17:20:42.971Z,16.7
2023-04-23T17:26:35.897Z,16.7
2023-04-23T17:32:29.471Z,16.7
2023-04-23T17:38:29.153Z,16.7
2023-04-23T17:44:22.524Z,16.7
2023-04-23T17:50:18.439Z,16.7
2023-04-23T17:56:14.765Z,16.7
2023-04-23T18:01:55.042Z,16.7
2023-04-23T18:07:52.801Z,16.7
2023-04-23T18:13:31.732Z,16.6
2023-04-23T18:19:09.972Z,16.7
2023-04-23T18:24:49.565Z,16.7
2023-04-23T18:30:11.807Z,16.8
2023-04-23T18:36:02.712Z,16.8
2023-04-23T18:42:35.239Z,16.8
2023-04-23T18:48:13.713Z,16.8
2023-04-23T18:53:55.091Z,16.8
2023-04-23T18:59:32.726Z,16.8
2023-04-23T19:05:53.531Z,16.8
2023-04-23T19:11:47.025Z,16.8
2023-04-23T19:17:09.663Z,16.8
2023-04-23T19:23:03.022Z,16.8
2023-04-23T19:28:41.158Z,16.8
2023-04-23T19:34:34.905Z,16.8
2023-04-23T19:40:12.822Z,16.8
2023-04-23T19:45:50.638Z,16.8
2023-04-23T19:51:28.910Z,16.8
2023-04-23T19:57:08.626Z,16.8
2023-04-23T20:03:02.484Z,16.8
2023-04-23T20:08:40.817Z,16.7
2023-04-23T20:14:17.963Z,16.7
2023-04-23T20:19:58.759Z,16.7
2023-04-23T20:25:20.859Z,16.7
2023-04-23T20:30:58.148Z,16.7
2023-04-23T20:36:35.476Z,16.7
2023-04-23T20:42:12.193Z,16.7
2023-04-23T20:47:48.131Z,16.6
2023-04-23T20:53:39.635Z,16.6
2023-04-23T20:59:15.618Z,16.6
2023-04-23T21:05:09.373Z,16.6
2023-04-23T21:11:00.928Z,16.9
2023-04-23T21:16:52.814Z,17.4
2023-04-23T21:22:44.560Z,17.7
2023-04-23T21:28:38.452Z,17.8
2023-04-23T21:34:14.619Z,17.9
2023-04-23T21:40:06.165Z,17.9
2023-04-23T21:45:57.703Z,18.1
2023-04-23T21:51:49.828Z,18.2
2023-04-23T21:57:41.757Z,18.1
2023-04-23T22:04:10.303Z,18.1
2023-04-23T22:10:01.375Z,18
2023-04-23T22:16:16.746Z,18.2
2023-04-23T22:22:12.505Z,18.3
2023-04-23T22:28:02.641Z,18.3
2023-04-23T22:33:38.874Z,18.2
2023-04-23T22:39:31.052Z,18.1
2023-04-23T22:45:08.380Z,18
2023-04-23T22:50:44.556Z,18.2
2023-04-23T22:56:07.344Z,18.3
2023-04-23T23:01:43.339Z,18.3
2023-04-23T23:07:04.689Z,18.2
2023-04-23T23:12:55.814Z,18.1
2023-04-23T23:18:31.878Z,18.1
2023-04-23T23:24:23.091Z,18.1
2023-04-23T23:30:14.715Z,18.3
2023-04-23T23:36:05.799Z,18.3
2023-04-23T23:41:59.019Z,18.3
2023-04-23T23:47:51.870Z,18.2
2023-04-23T23:53:28.088Z,18.1
2023-04-23T23:59:04.571Z,18.1
